Chelsea, United Kingdom
Current Conditions -  °F | °C
As of 1:50 AM on Sunday 23 Nov 2014 (Local Time) from EGLC Reporting Station
Haze Haze  
Wind Chill: 14°   Ceiling: 100
Heat Index: 14°   Visibility: 0.81mi
Dew Point: 13°   Wind: 2mph
Humidity: 94%   Direction: 130°SE
Pressure: 29.94"   Gusts: NA
Location:  51.49°N, 0.17°W
Report Text: EGLC 230150Z AUTO 13002KT 1300 BR BKN001/// 14/13 Q1014
Loading
Personal Weather Stations






























Interactive Weather Map New forecast layout! Learn more

10-Day Weather Forecast

Advertisements
Track Severe Weather on mobile